createdAt,value
2019-01-26T00:02:29.639Z,28.35
2019-01-26T00:04:59.750Z,28.75
2019-01-26T00:07:29.840Z,31.48
2019-01-26T00:09:59.951Z,29.85
2019-01-26T00:12:30.048Z,28.20
2019-01-26T00:15:00.237Z,31.15
2019-01-26T00:17:30.268Z,32.20
2019-01-26T00:20:00.483Z,32.00
2019-01-26T00:22:30.563Z,31.05
2019-01-26T00:25:00.678Z,30.75
2019-01-26T00:27:30.778Z,32.50
2019-01-26T00:30:00.893Z,29.92
2019-01-26T00:32:30.992Z,32.08
2019-01-26T00:35:01.100Z,31.50
2019-01-26T00:37:31.204Z,31.05
2019-01-26T00:40:01.326Z,31.75
2019-01-26T00:42:31.416Z,30.30
2019-01-26T00:45:01.528Z,32.88
2019-01-26T00:47:31.729Z,29.82
2019-01-26T00:50:01.899Z,34.45
2019-01-26T00:52:32.009Z,32.78
2019-01-26T00:55:02.121Z,31.95
2019-01-26T00:57:32.224Z,32.88
2019-01-26T01:00:02.333Z,32.40
2019-01-26T01:02:32.426Z,34.08
2019-01-26T01:05:02.537Z,32.70
2019-01-26T01:07:32.635Z,33.35
2019-01-26T01:10:03.093Z,32.85
2019-01-26T01:12:33.186Z,32.15
2019-01-26T01:15:03.975Z,33.05
2019-01-26T01:17:34.066Z,31.70
2019-01-26T01:20:07.393Z,31.33
2019-01-26T01:22:37.490Z,29.95
2019-01-26T01:25:10.919Z,31.95
2019-01-26T01:27:41.008Z,31.27
2019-01-26T01:30:24.972Z,32.53
2019-01-26T01:32:55.061Z,32.65
2019-01-26T01:35:25.178Z,33.20
2019-01-26T01:37:55.278Z,30.97
2019-01-26T01:40:25.390Z,32.55
2019-01-26T01:42:55.483Z,30.55
2019-01-26T01:45:25.597Z,32.88
2019-01-26T01:47:55.679Z,31.93
2019-01-26T01:50:31.265Z,30.30
2019-01-26T01:53:01.353Z,30.20
2019-01-26T01:55:31.838Z,31.27
2019-01-26T01:58:01.924Z,29.70
2019-01-26T02:00:32.034Z,29.95
2019-01-26T02:03:02.119Z,30.92
2019-01-26T02:05:32.237Z,30.82
2019-01-26T02:08:02.324Z,30.85
2019-01-26T02:10:32.497Z,29.72
2019-01-26T02:13:02.586Z,29.90
2019-01-26T02:15:32.704Z,30.37
2019-01-26T02:18:02.811Z,29.50
2019-01-26T02:20:32.903Z,30.40
2019-01-26T02:23:03.018Z,30.20
2019-01-26T02:25:33.112Z,30.97
2019-01-26T02:28:03.233Z,30.95
2019-01-26T02:30:33.333Z,30.90
2019-01-26T02:33:03.446Z,31.73
2019-01-26T02:35:33.537Z,31.10
2019-01-26T02:38:04.718Z,31.77
2019-01-26T02:40:34.813Z,33.88
2019-01-26T02:43:04.925Z,32.45
2019-01-26T02:45:35.015Z,32.28
2019-01-26T02:48:05.123Z,31.87
2019-01-26T02:50:35.209Z,31.30
2019-01-26T02:53:05.329Z,32.25
2019-01-26T02:55:35.443Z,33.60
2019-01-26T02:58:05.555Z,34.10
2019-01-26T03:00:35.644Z,34.73
2019-01-26T03:03:05.753Z,33.80
2019-01-26T03:05:35.843Z,33.83
2019-01-26T03:08:05.949Z,33.83
2019-01-26T03:10:36.046Z,32.93
2019-01-26T03:13:06.161Z,34.23
2019-01-26T03:15:36.298Z,34.45
2019-01-26T03:18:06.412Z,33.08
2019-01-26T03:20:36.495Z,34.00
2019-01-26T03:23:06.605Z,33.95
2019-01-26T03:25:36.764Z,31.62
2019-01-26T03:28:06.872Z,33.45
2019-01-26T03:30:36.968Z,32.40
2019-01-26T03:33:07.348Z,34.25
2019-01-26T03:35:37.438Z,35.98
2019-01-26T03:38:07.549Z,36.68
2019-01-26T03:40:37.642Z,36.03
2019-01-26T03:43:07.758Z,35.60
2019-01-26T03:45:37.848Z,36.03
2019-01-26T03:48:07.956Z,35.78
2019-01-26T03:50:38.045Z,37.58
2019-01-26T03:53:08.161Z,33.23
2019-01-26T03:55:38.249Z,33.92
2019-01-26T03:58:08.363Z,33.83
2019-01-26T04:00:38.449Z,34.73
2019-01-26T04:03:08.561Z,34.58
2019-01-26T04:05:38.650Z,34.92
2019-01-26T04:08:08.766Z,34.67
2019-01-26T04:10:38.857Z,37.30
2019-01-26T04:13:08.982Z,37.08
2019-01-26T04:15:39.053Z,36.95
2019-01-26T04:18:09.161Z,35.48
2019-01-26T04:20:39.256Z,36.17
2019-01-26T04:23:09.362Z,36.70
2019-01-26T04:25:39.453Z,35.88
2019-01-26T04:28:11.197Z,32.88
2019-01-26T04:30:41.282Z,37.95
2019-01-26T04:33:11.394Z,37.93
2019-01-26T04:35:41.484Z,38.48
2019-01-26T04:38:11.598Z,37.20
2019-01-26T04:40:41.681Z,37.98
2019-01-26T04:43:11.793Z,38.98
2019-01-26T04:45:41.893Z,39.30
2019-01-26T04:48:12.020Z,37.67
2019-01-26T04:50:42.531Z,38.02
2019-01-26T04:53:18.249Z,36.85
2019-01-26T04:55:48.335Z,37.05
2019-01-26T04:58:18.445Z,37.03
2019-01-26T05:00:48.540Z,38.67
2019-01-26T05:03:18.664Z,37.50
2019-01-26T05:05:48.785Z,37.65
2019-01-26T05:08:18.884Z,36.85
2019-01-26T05:10:49.012Z,39.90
2019-01-26T05:13:19.090Z,36.60
2019-01-26T05:15:49.205Z,36.70
2019-01-26T05:18:19.301Z,37.55
2019-01-26T05:20:49.403Z,35.95
2019-01-26T05:23:19.494Z,36.70
2019-01-26T05:25:49.597Z,35.33
2019-01-26T05:28:19.684Z,37.50
2019-01-26T05:30:49.794Z,38.13
2019-01-26T05:33:20.866Z,36.70
2019-01-26T05:35:50.963Z,38.17
2019-01-26T05:38:21.055Z,39.03
2019-01-26T05:40:51.172Z,35.68
2019-01-26T05:43:40.683Z,37.85
2019-01-26T05:46:10.893Z,35.90
2019-01-26T05:48:40.981Z,37.33
2019-01-26T05:51:11.103Z,38.28
2019-01-26T05:53:41.193Z,37.20
2019-01-26T05:56:11.318Z,34.53
2019-01-26T05:58:41.474Z,36.08
2019-01-26T06:01:11.609Z,34.60
2019-01-26T06:03:41.709Z,35.63
2019-01-26T06:06:11.811Z,35.83
2019-01-26T06:08:41.896Z,33.42
2019-01-26T06:11:12.000Z,34.43
2019-01-26T06:13:42.081Z,35.50
2019-01-26T06:16:12.194Z,34.33
2019-01-26T06:18:42.280Z,35.33
2019-01-26T06:21:12.389Z,35.50
2019-01-26T06:23:42.475Z,33.78
2019-01-26T06:26:13.028Z,33.95
2019-01-26T06:28:43.250Z,33.63
2019-01-26T06:31:13.350Z,33.02
2019-01-26T06:33:43.436Z,31.85
2019-01-26T06:36:13.546Z,33.40
2019-01-26T06:38:43.626Z,33.30
2019-01-26T06:41:13.732Z,33.02
2019-01-26T06:43:43.810Z,32.90
2019-01-26T06:46:13.917Z,33.95
2019-01-26T06:48:45.287Z,30.68
2019-01-26T06:51:15.392Z,31.77
2019-01-26T06:53:45.478Z,32.70
2019-01-26T06:56:15.586Z,31.97
2019-01-26T06:58:46.643Z,29.27
2019-01-26T07:01:16.747Z,30.17
2019-01-26T07:03:46.833Z,32.55
2019-01-26T07:06:18.701Z,33.67
2019-01-26T07:08:48.788Z,28.87
2019-01-26T07:11:18.886Z,30.23
2019-01-26T07:13:48.961Z,29.95
2019-01-26T07:16:20.697Z,30.32
2019-01-26T07:18:50.776Z,28.70
2019-01-26T07:21:20.890Z,28.60
2019-01-26T07:23:50.966Z,26.25
2019-01-26T07:26:21.066Z,29.72
2019-01-26T07:28:51.146Z,29.25
2019-01-26T07:31:21.246Z,31.30
2019-01-26T07:33:51.323Z,26.60
2019-01-26T07:36:21.426Z,28.70
2019-01-26T07:38:51.502Z,27.93
2019-01-26T07:41:21.601Z,28.32
2019-01-26T07:43:51.682Z,27.27
2019-01-26T07:46:21.785Z,29.63
2019-01-26T07:48:51.866Z,29.05
2019-01-26T07:51:22.037Z,29.25
2019-01-26T07:53:52.087Z,27.35
2019-01-26T07:56:22.188Z,25.95
2019-01-26T07:58:52.300Z,25.37
2019-01-26T08:01:22.402Z,24.75
2019-01-26T08:03:52.477Z,24.43
2019-01-26T08:06:22.576Z,26.80
2019-01-26T08:08:52.661Z,27.25
2019-01-26T08:11:22.763Z,26.12
2019-01-26T08:13:52.833Z,26.62
2019-01-26T08:16:22.935Z,27.17
2019-01-26T08:18:53.136Z,24.47
2019-01-26T08:21:23.189Z,23.27
2019-01-26T08:23:53.266Z,26.35
2019-01-26T08:26:23.373Z,23.75
2019-01-26T08:28:53.451Z,23.40
2019-01-26T08:31:23.551Z,24.70
2019-01-26T08:33:53.763Z,23.47
2019-01-26T08:36:23.901Z,23.12
2019-01-26T08:38:53.980Z,22.05
2019-01-26T08:41:25.149Z,21.17
2019-01-26T08:43:55.227Z,23.67
2019-01-26T08:46:25.325Z,22.95
2019-01-26T08:48:55.402Z,25.65
2019-01-26T08:51:25.577Z,24.30
2019-01-26T08:53:55.667Z,23.47
2019-01-26T08:56:25.750Z,22.15
2019-01-26T08:58:55.870Z,25.48
2019-01-26T09:01:38.793Z,23.52
2019-01-26T09:04:16.237Z,23.57
2019-01-26T09:06:58.293Z,22.13
2019-01-26T09:09:28.378Z,24.52
2019-01-26T09:11:58.481Z,23.57
2019-01-26T09:14:28.558Z,22.62
2019-01-26T09:17:11.256Z,22.15
2019-01-26T09:19:41.337Z,21.77
2019-01-26T09:22:11.496Z,21.68
2019-01-26T09:24:41.568Z,20.68
2019-01-26T09:27:11.753Z,21.25
2019-01-26T09:29:42.646Z,23.55
2019-01-26T09:32:12.879Z,21.82
2019-01-26T09:34:43.007Z,23.12
2019-01-26T09:37:13.187Z,23.52
2019-01-26T09:39:43.253Z,23.60
2019-01-26T09:42:13.361Z,21.23
2019-01-26T09:44:43.439Z,22.37
2019-01-26T09:47:13.554Z,20.17
2019-01-26T09:49:43.632Z,21.30
2019-01-26T09:52:13.741Z,20.97
2019-01-26T09:54:43.828Z,20.40
2019-01-26T09:57:13.931Z,19.12
2019-01-26T09:59:44.094Z,19.50
2019-01-26T10:02:14.221Z,19.50
2019-01-26T10:04:44.293Z,19.05
2019-01-26T10:07:14.408Z,17.82
2019-01-26T10:09:44.482Z,16.82
2019-01-26T10:12:14.589Z,16.73
2019-01-26T10:14:44.756Z,16.57
2019-01-26T10:17:14.863Z,15.60
2019-01-26T10:19:45.016Z,15.93
2019-01-26T10:22:15.122Z,15.68
2019-01-26T10:24:45.201Z,16.65
2019-01-26T10:27:15.318Z,15.83
2019-01-26T10:29:45.466Z,16.00
2019-01-26T10:32:15.557Z,15.15
2019-01-26T10:34:45.653Z,15.80
2019-01-26T10:37:16.731Z,15.45
2019-01-26T10:39:46.811Z,14.75
2019-01-26T10:42:18.830Z,14.00
2019-01-26T10:44:49.324Z,14.25
2019-01-26T10:47:19.463Z,14.60
2019-01-26T10:49:49.543Z,14.83
2019-01-26T10:52:19.655Z,14.58
2019-01-26T10:55:02.191Z,13.98
2019-01-26T10:57:32.333Z,14.50
2019-01-26T11:00:02.407Z,14.15
2019-01-26T11:02:32.582Z,13.13
2019-01-26T11:05:02.663Z,12.37
2019-01-26T11:07:32.778Z,12.00
2019-01-26T11:10:03.228Z,12.40
2019-01-26T11:12:33.336Z,11.38
2019-01-26T11:15:03.419Z,12.05
2019-01-26T11:17:33.528Z,12.18
2019-01-26T11:20:04.484Z,11.12
2019-01-26T11:22:34.583Z,11.12
2019-01-26T11:25:08.993Z,11.63
2019-01-26T11:27:39.102Z,10.58
2019-01-26T11:30:20.430Z,10.45
2019-01-26T11:32:50.530Z,10.58
2019-01-26T11:35:23.613Z,10.65
2019-01-26T11:37:53.726Z,10.55
2019-01-26T11:40:23.867Z,9.23
2019-01-26T11:42:53.975Z,10.30
2019-01-26T11:45:41.802Z,9.75
2019-01-26T11:48:13.599Z,9.83
2019-01-26T11:51:01.627Z,11.90
2019-01-26T11:53:31.743Z,10.18
2019-01-26T11:56:03.459Z,9.68
2019-01-26T11:58:33.562Z,9.80
2019-01-26T12:01:21.785Z,9.55
2019-01-26T12:03:53.517Z,9.35
2019-01-26T12:06:25.272Z,9.23
2019-01-26T12:08:55.375Z,10.58
2019-01-26T12:11:25.504Z,8.98
2019-01-26T12:13:55.595Z,10.45
2019-01-26T12:16:27.002Z,9.35
2019-01-26T12:18:58.451Z,9.13
2019-01-26T12:21:28.599Z,9.40
2019-01-26T12:23:58.699Z,10.08
2019-01-26T12:26:28.866Z,9.30
2019-01-26T12:28:58.970Z,9.53
2019-01-26T12:31:29.145Z,8.50
2019-01-26T12:33:59.278Z,9.23
2019-01-26T12:36:29.524Z,8.33
2019-01-26T12:38:59.656Z,9.40
2019-01-26T12:41:29.792Z,8.08
2019-01-26T12:43:59.890Z,8.05
2019-01-26T12:46:30.017Z,7.87
2019-01-26T12:49:00.116Z,8.00
2019-01-26T12:51:30.241Z,8.00
2019-01-26T12:54:00.333Z,8.03
2019-01-26T12:56:31.417Z,7.62
2019-01-26T12:59:01.510Z,7.65
2019-01-26T13:01:31.635Z,7.67
2019-01-26T13:04:01.739Z,7.55
2019-01-26T13:06:31.870Z,7.62
2019-01-26T13:09:02.108Z,6.80
2019-01-26T13:11:33.467Z,6.70
2019-01-26T13:14:03.566Z,6.45
2019-01-26T13:16:33.749Z,6.87
2019-01-26T13:19:03.961Z,6.83
2019-01-26T13:21:34.070Z,7.05
2019-01-26T13:24:04.442Z,6.58
2019-01-26T13:26:34.562Z,6.03
2019-01-26T13:29:05.130Z,6.30
2019-01-26T13:31:35.251Z,5.97
2019-01-26T13:34:05.358Z,6.62
2019-01-26T13:36:35.529Z,6.28
2019-01-26T13:39:08.097Z,6.15
2019-01-26T13:41:38.446Z,6.20
2019-01-26T13:44:08.780Z,5.53
2019-01-26T13:46:38.936Z,5.30
2019-01-26T13:49:09.037Z,5.75
2019-01-26T13:51:39.255Z,5.53
2019-01-26T13:54:09.354Z,5.90
2019-01-26T13:56:39.432Z,5.60
2019-01-26T13:59:09.536Z,5.37
2019-01-26T14:01:39.677Z,6.25
2019-01-26T14:04:09.824Z,5.60
2019-01-26T14:06:39.902Z,5.60
2019-01-26T14:09:10.020Z,5.50
2019-01-26T14:11:40.117Z,5.83
2019-01-26T14:14:10.192Z,6.00
2019-01-26T14:16:40.287Z,6.12
2019-01-26T14:19:10.425Z,5.72
2019-01-26T14:21:40.539Z,6.37
2019-01-26T14:24:10.676Z,7.58
2019-01-26T14:26:40.770Z,7.22
2019-01-26T14:29:10.840Z,6.72
2019-01-26T14:31:40.963Z,6.78
2019-01-26T14:34:11.035Z,6.83
2019-01-26T14:36:41.151Z,6.20
2019-01-26T14:39:11.237Z,6.80
2019-01-26T14:41:41.433Z,7.10
2019-01-26T14:44:11.514Z,7.37
2019-01-26T14:46:41.882Z,7.60
2019-01-26T14:49:11.928Z,7.35
2019-01-26T14:51:42.240Z,7.28
2019-01-26T14:54:13.382Z,7.65
2019-01-26T14:56:43.588Z,7.65
2019-01-26T14:59:13.658Z,8.15
2019-01-26T15:01:43.904Z,8.23
2019-01-26T15:04:13.972Z,9.60
2019-01-26T15:06:44.306Z,9.50
2019-01-26T15:09:15.468Z,9.35
2019-01-26T15:11:45.655Z,9.18
2019-01-26T15:14:15.711Z,9.40
2019-01-26T15:16:45.890Z,11.43
2019-01-26T15:19:15.963Z,11.45
2019-01-26T15:21:46.434Z,10.50
2019-01-26T15:24:16.490Z,10.20
2019-01-26T15:26:46.714Z,9.80
2019-01-26T15:29:17.215Z,9.90
2019-01-26T15:31:47.336Z,10.90
2019-01-26T15:34:17.487Z,10.30
2019-01-26T15:36:47.754Z,10.18
2019-01-26T15:39:17.813Z,10.68
2019-01-26T15:41:48.002Z,11.10
2019-01-26T15:44:18.084Z,10.72
2019-01-26T15:46:48.324Z,13.70
2019-01-26T15:49:18.460Z,12.18
2019-01-26T15:51:48.698Z,11.73
2019-01-26T15:54:18.766Z,12.85
2019-01-26T15:56:48.899Z,12.25
2019-01-26T15:59:18.971Z,12.88
2019-01-26T16:01:49.148Z,12.95
2019-01-26T16:04:19.315Z,12.98
2019-01-26T16:06:49.492Z,12.50
2019-01-26T16:09:19.565Z,13.13
2019-01-26T16:11:49.687Z,12.58
2019-01-26T16:14:19.764Z,12.45
2019-01-26T16:16:49.993Z,13.05
2019-01-26T16:19:20.051Z,12.97
2019-01-26T16:21:50.189Z,12.98
2019-01-26T16:24:20.262Z,12.55
2019-01-26T16:26:50.423Z,12.93
2019-01-26T16:29:20.497Z,12.30
2019-01-26T16:31:50.603Z,13.90
2019-01-26T16:34:20.682Z,13.25
2019-01-26T16:36:50.901Z,13.32
2019-01-26T16:39:20.970Z,13.10
2019-01-26T16:41:51.153Z,13.08
2019-01-26T16:44:21.218Z,13.50
2019-01-26T16:46:51.408Z,14.93
2019-01-26T16:49:21.558Z,14.95
2019-01-26T16:51:52.131Z,15.88
2019-01-26T16:54:22.274Z,15.78
2019-01-26T16:56:52.415Z,16.52
2019-01-26T16:59:22.661Z,16.73
2019-01-26T17:01:52.821Z,15.88
2019-01-26T17:04:22.887Z,17.15
2019-01-26T17:06:53.209Z,17.87
2019-01-26T17:09:23.331Z,18.35
2019-01-26T17:11:53.439Z,18.40
2019-01-26T17:14:23.519Z,18.87
2019-01-26T17:16:53.621Z,19.17
2019-01-26T17:19:23.703Z,18.48
2019-01-26T17:21:53.813Z,19.00
2019-01-26T17:24:23.888Z,20.02
2019-01-26T17:26:53.990Z,19.23
2019-01-26T17:29:24.075Z,23.02
2019-01-26T17:31:54.217Z,21.75
2019-01-26T17:34:30.088Z,20.75
2019-01-26T17:36:56.132Z,20.97
2019-01-26T17:39:26.373Z,22.17
2019-01-26T17:41:56.587Z,22.95
2019-01-26T17:44:26.662Z,22.10
2019-01-26T17:46:56.939Z,21.20
2019-01-26T17:49:27.103Z,23.22
2019-01-26T17:51:57.385Z,22.77
2019-01-26T17:54:27.723Z,21.55
2019-01-26T17:56:57.811Z,22.80
2019-01-26T17:59:27.917Z,24.57
2019-01-26T18:02:00.633Z,27.00
2019-01-26T18:04:30.709Z,26.37
2019-01-26T18:07:00.817Z,22.98
2019-01-26T18:09:31.010Z,24.15
2019-01-26T18:12:01.553Z,24.60
2019-01-26T18:14:33.724Z,25.35
2019-01-26T18:17:03.814Z,25.88
2019-01-26T18:19:33.996Z,26.45
2019-01-26T18:22:04.087Z,25.27
2019-01-26T18:24:34.789Z,25.50
2019-01-26T18:27:04.974Z,26.33
2019-01-26T18:29:35.149Z,25.10
2019-01-26T18:32:05.247Z,24.95
2019-01-26T18:34:35.429Z,24.20
2019-01-26T18:37:05.604Z,24.15
2019-01-26T18:39:35.930Z,23.65
2019-01-26T18:42:06.061Z,23.87
2019-01-26T18:44:36.250Z,23.90
2019-01-26T18:47:06.469Z,22.77
2019-01-26T18:49:36.736Z,24.52
2019-01-26T18:52:07.837Z,23.15
2019-01-26T18:54:37.969Z,22.82
2019-01-26T18:57:08.054Z,23.90
2019-01-26T18:59:39.158Z,24.05
2019-01-26T19:02:09.308Z,22.80
2019-01-26T19:04:39.410Z,22.85
2019-01-26T19:07:09.565Z,22.45
2019-01-26T19:09:39.709Z,22.87
2019-01-26T19:12:09.973Z,20.12
2019-01-26T19:14:41.033Z,21.00
2019-01-26T19:17:11.105Z,21.10
2019-01-26T19:19:41.212Z,19.77
2019-01-26T19:22:11.292Z,21.10
2019-01-26T19:24:41.405Z,22.90
2019-01-26T19:27:11.482Z,18.45
2019-01-26T19:29:41.589Z,18.35
2019-01-26T19:32:11.667Z,18.70
2019-01-26T19:34:41.773Z,19.62
2019-01-26T19:37:11.850Z,20.20
2019-01-26T19:39:41.960Z,19.52
2019-01-26T19:42:12.040Z,18.35
2019-01-26T19:44:42.145Z,18.87
2019-01-26T19:47:12.226Z,19.32
2019-01-26T19:49:42.447Z,19.57
2019-01-26T19:52:12.510Z,19.77
2019-01-26T19:54:42.669Z,18.80
2019-01-26T19:57:12.788Z,20.43
2019-01-26T19:59:42.910Z,18.92
2019-01-26T20:02:12.998Z,19.45
2019-01-26T20:04:43.097Z,18.15
2019-01-26T20:07:13.174Z,19.42
2019-01-26T20:09:43.283Z,19.40
2019-01-26T20:12:13.367Z,19.60
2019-01-26T20:14:43.473Z,19.87
2019-01-26T20:17:13.549Z,19.35
2019-01-26T20:19:43.674Z,18.32
2019-01-26T20:22:14.718Z,18.75
2019-01-26T20:24:44.828Z,18.87
2019-01-26T20:27:14.903Z,22.22
2019-01-26T20:29:45.015Z,20.32
2019-01-26T20:32:15.170Z,18.02
2019-01-26T20:34:45.276Z,20.48
2019-01-26T20:37:15.359Z,21.60
2019-01-26T20:39:45.468Z,25.00
2019-01-26T20:42:15.548Z,22.40
2019-01-26T20:44:45.663Z,20.92
2019-01-26T20:47:15.740Z,19.85
2019-01-26T20:49:45.849Z,20.50
2019-01-26T20:52:15.927Z,20.20
2019-01-26T20:54:46.039Z,19.30
2019-01-26T20:57:16.119Z,24.23
2019-01-26T20:59:46.228Z,20.08
2019-01-26T21:02:16.308Z,18.07
2019-01-26T21:04:46.421Z,18.12
2019-01-26T21:07:18.137Z,18.37
2019-01-26T21:09:48.246Z,18.52
2019-01-26T21:12:18.323Z,17.73
2019-01-26T21:14:48.432Z,18.05
2019-01-26T21:17:18.507Z,19.60
2019-01-26T21:19:48.613Z,19.17
2019-01-26T21:22:18.695Z,17.60
2019-01-26T21:24:48.960Z,18.02
2019-01-26T21:27:19.170Z,16.95
2019-01-26T21:29:49.261Z,18.40
2019-01-26T21:32:19.408Z,25.37
2019-01-26T21:34:49.522Z,24.35
2019-01-26T21:37:19.691Z,28.77
2019-01-26T21:39:49.797Z,23.50
2019-01-26T21:42:19.921Z,23.22
2019-01-26T21:44:50.021Z,19.95
2019-01-26T21:47:20.098Z,26.10
2019-01-26T21:49:50.209Z,31.57
2019-01-26T21:52:20.293Z,29.32
2019-01-26T21:54:50.398Z,23.32
2019-01-26T21:57:20.479Z,22.25
2019-01-26T21:59:50.592Z,22.90
2019-01-26T22:02:20.776Z,20.65
2019-01-26T22:04:50.886Z,20.80
2019-01-26T22:07:20.971Z,20.68
2019-01-26T22:09:51.074Z,20.43
2019-01-26T22:12:23.250Z,25.68
2019-01-26T22:14:53.354Z,25.52
2019-01-26T22:17:25.051Z,18.85
2019-01-26T22:19:55.160Z,19.00
2019-01-26T22:22:25.238Z,20.80
2019-01-26T22:24:55.350Z,20.05
2019-01-26T22:27:25.430Z,21.57
2019-01-26T22:29:55.533Z,20.75
2019-01-26T22:32:25.613Z,20.32
2019-01-26T22:34:55.826Z,22.95
2019-01-26T22:37:25.957Z,22.60
2019-01-26T22:39:56.099Z,21.40
2019-01-26T22:42:26.135Z,34.23
2019-01-26T22:44:56.241Z,43.87
2019-01-26T22:47:26.400Z,35.98
2019-01-26T22:49:56.502Z,24.12
2019-01-26T22:52:26.590Z,22.62
2019-01-26T22:54:56.687Z,21.87
2019-01-26T22:57:26.896Z,21.45
2019-01-26T22:59:56.955Z,21.27
2019-01-26T23:02:27.056Z,28.17
2019-01-26T23:05:18.348Z,21.73
2019-01-26T23:07:48.431Z,19.80
2019-01-26T23:10:48.397Z,20.08
2019-01-26T23:13:23.395Z,19.52
2019-01-26T23:16:06.802Z,22.10
2019-01-26T23:19:11.823Z,22.40
2019-01-26T23:22:01.759Z,24.80
2019-01-26T23:24:53.453Z,23.65
2019-01-26T23:27:52.043Z,24.30
2019-01-26T23:30:46.256Z,25.15
2019-01-26T23:33:16.477Z,26.27
2019-01-26T23:35:46.618Z,35.83
2019-01-26T23:38:16.698Z,37.78
2019-01-26T23:40:46.808Z,29.80
2019-01-26T23:43:16.887Z,29.90
2019-01-26T23:45:46.986Z,29.85
2019-01-26T23:48:17.090Z,27.77
2019-01-26T23:50:47.169Z,27.27
2019-01-26T23:53:17.332Z,27.30
2019-01-26T23:55:47.432Z,27.65
2019-01-26T23:58:17.603Z,27.55
